sensor_id;sensor_type;location;lat;lon;timestamp;P1;durP1;ratioP1;P2;durP2;ratioP2
51636;SDS011;37713;53.254;6.460;2023-11-21T00:00:14;20.98;;;5.20;;
51636;SDS011;37713;53.254;6.460;2023-11-21T00:02:41;27.10;;;6.15;;
51636;SDS011;37713;53.254;6.460;2023-11-21T00:05:09;31.48;;;5.28;;
51636;SDS011;37713;53.254;6.460;2023-11-21T00:07:36;29.55;;;5.40;;
51636;SDS011;37713;53.254;6.460;2023-11-21T00:10:03;28.40;;;5.68;;
51636;SDS011;37713;53.254;6.460;2023-11-21T00:12:30;29.60;;;5.70;;
51636;SDS011;37713;53.254;6.460;2023-11-21T00:14:57;33.72;;;5.75;;
51636;SDS011;37713;53.254;6.460;2023-11-21T00:17:23;23.23;;;4.85;;
51636;SDS011;37713;53.254;6.460;2023-11-21T00:19:49;28.23;;;5.88;;
51636;SDS011;37713;53.254;6.460;2023-11-21T00:22:17;22.90;;;5.07;;
51636;SDS011;37713;53.254;6.460;2023-11-21T00:24:43;39.80;;;5.90;;
51636;SDS011;37713;53.254;6.460;2023-11-21T00:27:09;27.20;;;5.32;;
51636;SDS011;37713;53.254;6.460;2023-11-21T00:29:35;30.15;;;6.07;;
51636;SDS011;37713;53.254;6.460;2023-11-21T00:32:01;32.75;;;6.65;;
51636;SDS011;37713;53.254;6.460;2023-11-21T00:34:27;27.38;;;5.93;;
51636;SDS011;37713;53.254;6.460;2023-11-21T00:36:53;25.10;;;5.40;;
51636;SDS011;37713;53.254;6.460;2023-11-21T00:39:18;24.30;;;5.28;;
51636;SDS011;37713;53.254;6.460;2023-11-21T00:41:44;23.95;;;6.55;;
51636;SDS011;37713;53.254;6.460;2023-11-21T00:44:10;24.20;;;5.40;;
51636;SDS011;37713;53.254;6.460;2023-11-21T00:46:36;27.83;;;5.93;;
51636;SDS011;37713;53.254;6.460;2023-11-21T00:49:02;21.48;;;5.85;;
51636;SDS011;37713;53.254;6.460;2023-11-21T00:51:31;24.50;;;6.30;;
51636;SDS011;37713;53.254;6.460;2023-11-21T00:53:58;23.10;;;6.38;;
51636;SDS011;37713;53.254;6.460;2023-11-21T00:56:23;22.90;;;5.90;;
51636;SDS011;37713;53.254;6.460;2023-11-21T00:58:49;24.10;;;5.90;;
51636;SDS011;37713;53.254;6.460;2023-11-21T01:01:17;25.40;;;5.88;;
51636;SDS011;37713;53.254;6.460;2023-11-21T01:03:45;27.48;;;5.97;;
51636;SDS011;37713;53.254;6.460;2023-11-21T01:06:11;22.15;;;6.40;;
51636;SDS011;37713;53.254;6.460;2023-11-21T01:08:37;23.60;;;6.30;;
51636;SDS011;37713;53.254;6.460;2023-11-21T01:11:03;21.27;;;5.80;;
51636;SDS011;37713;53.254;6.460;2023-11-21T01:13:30;25.80;;;6.13;;
51636;SDS011;37713;53.254;6.460;2023-11-21T01:15:56;24.95;;;6.07;;
51636;SDS011;37713;53.254;6.460;2023-11-21T01:18:21;21.83;;;6.28;;
51636;SDS011;37713;53.254;6.460;2023-11-21T01:20:50;29.02;;;5.80;;
51636;SDS011;37713;53.254;6.460;2023-11-21T01:23:18;26.85;;;5.95;;
51636;SDS011;37713;53.254;6.460;2023-11-21T01:25:44;26.30;;;6.38;;
51636;SDS011;37713;53.254;6.460;2023-11-21T01:28:10;26.52;;;6.18;;
51636;SDS011;37713;53.254;6.460;2023-11-21T01:30:36;24.45;;;5.85;;
51636;SDS011;37713;53.254;6.460;2023-11-21T01:33:02;21.20;;;6.43;;
51636;SDS011;37713;53.254;6.460;2023-11-21T01:35:28;22.70;;;6.53;;
51636;SDS011;37713;53.254;6.460;2023-11-21T01:37:54;18.45;;;6.00;;
51636;SDS011;37713;53.254;6.460;2023-11-21T01:40:20;27.08;;;7.00;;
51636;SDS011;37713;53.254;6.460;2023-11-21T01:42:46;25.70;;;6.40;;
51636;SDS011;37713;53.254;6.460;2023-11-21T01:45:13;21.35;;;6.38;;
51636;SDS011;37713;53.254;6.460;2023-11-21T01:47:41;25.73;;;6.55;;
51636;SDS011;37713;53.254;6.460;2023-11-21T01:50:10;24.33;;;7.10;;
51636;SDS011;37713;53.254;6.460;2023-11-21T01:52:41;19.42;;;6.38;;
51636;SDS011;37713;53.254;6.460;2023-11-21T01:55:09;21.52;;;6.53;;
51636;SDS011;37713;53.254;6.460;2023-11-21T01:57:36;18.77;;;6.22;;
51636;SDS011;37713;53.254;6.460;2023-11-21T02:00:05;22.42;;;6.78;;
51636;SDS011;37713;53.254;6.460;2023-11-21T02:02:43;20.23;;;6.65;;
51636;SDS011;37713;53.254;6.460;2023-11-21T02:05:13;22.52;;;6.97;;
51636;SDS011;37713;53.254;6.460;2023-11-21T02:07:40;27.10;;;7.07;;
51636;SDS011;37713;53.254;6.460;2023-11-21T02:10:08;19.63;;;6.50;;
51636;SDS011;37713;53.254;6.460;2023-11-21T02:12:34;26.83;;;6.90;;
51636;SDS011;37713;53.254;6.460;2023-11-21T02:15:03;27.95;;;7.15;;
51636;SDS011;37713;53.254;6.460;2023-11-21T02:17:35;32.28;;;7.15;;
51636;SDS011;37713;53.254;6.460;2023-11-21T02:20:01;26.42;;;7.50;;
51636;SDS011;37713;53.254;6.460;2023-11-21T02:22:28;17.88;;;6.13;;
51636;SDS011;37713;53.254;6.460;2023-11-21T02:24:58;18.45;;;7.30;;
51636;SDS011;37713;53.254;6.460;2023-11-21T02:27:24;23.65;;;6.50;;
51636;SDS011;37713;53.254;6.460;2023-11-21T02:29:50;24.48;;;6.78;;
51636;SDS011;37713;53.254;6.460;2023-11-21T02:32:15;16.30;;;6.10;;
51636;SDS011;37713;53.254;6.460;2023-11-21T02:34:44;27.05;;;6.80;;
51636;SDS011;37713;53.254;6.460;2023-11-21T02:37:10;26.80;;;7.22;;
51636;SDS011;37713;53.254;6.460;2023-11-21T02:39:36;30.25;;;7.78;;
51636;SDS011;37713;53.254;6.460;2023-11-21T02:42:03;25.77;;;8.18;;
51636;SDS011;37713;53.254;6.460;2023-11-21T02:44:29;26.35;;;8.27;;
51636;SDS011;37713;53.254;6.460;2023-11-21T02:46:54;37.05;;;8.70;;
51636;SDS011;37713;53.254;6.460;2023-11-21T02:49:22;33.70;;;8.98;;
51636;SDS011;37713;53.254;6.460;2023-11-21T02:51:48;33.20;;;9.23;;
51636;SDS011;37713;53.254;6.460;2023-11-21T02:54:14;40.92;;;9.68;;
51636;SDS011;37713;53.254;6.460;2023-11-21T02:56:42;31.00;;;9.32;;
51636;SDS011;37713;53.254;6.460;2023-11-21T02:59:07;29.83;;;10.18;;
51636;SDS011;37713;53.254;6.460;2023-11-21T03:01:34;34.55;;;9.63;;
51636;SDS011;37713;53.254;6.460;2023-11-21T03:03:59;35.92;;;9.50;;
51636;SDS011;37713;53.254;6.460;2023-11-21T03:06:26;38.83;;;10.48;;
51636;SDS011;37713;53.254;6.460;2023-11-21T03:08:52;31.35;;;9.23;;
51636;SDS011;37713;53.254;6.460;2023-11-21T03:11:18;30.60;;;9.98;;
51636;SDS011;37713;53.254;6.460;2023-11-21T03:13:44;30.48;;;9.38;;
51636;SDS011;37713;53.254;6.460;2023-11-21T03:16:10;40.10;;;10.73;;
51636;SDS011;37713;53.254;6.460;2023-11-21T03:18:37;30.63;;;10.35;;
51636;SDS011;37713;53.254;6.460;2023-11-21T03:21:03;39.55;;;10.30;;
51636;SDS011;37713;53.254;6.460;2023-11-21T03:23:30;35.60;;;9.60;;
51636;SDS011;37713;53.254;6.460;2023-11-21T03:25:56;29.27;;;9.93;;
51636;SDS011;37713;53.254;6.460;2023-11-21T03:28:23;33.42;;;10.50;;
51636;SDS011;37713;53.254;6.460;2023-11-21T03:30:49;37.28;;;9.73;;
51636;SDS011;37713;53.254;6.460;2023-11-21T03:33:14;34.53;;;9.80;;
51636;SDS011;37713;53.254;6.460;2023-11-21T03:35:40;38.38;;;10.55;;
51636;SDS011;37713;53.254;6.460;2023-11-21T03:38:07;32.72;;;9.70;;
51636;SDS011;37713;53.254;6.460;2023-11-21T03:40:34;33.53;;;10.40;;
51636;SDS011;37713;53.254;6.460;2023-11-21T03:43:00;33.75;;;10.50;;
51636;SDS011;37713;53.254;6.460;2023-11-21T03:45:26;32.53;;;10.50;;
51636;SDS011;37713;53.254;6.460;2023-11-21T03:47:52;33.58;;;10.73;;
51636;SDS011;37713;53.254;6.460;2023-11-21T03:50:18;29.70;;;10.73;;
51636;SDS011;37713;53.254;6.460;2023-11-21T03:52:43;36.75;;;10.02;;
51636;SDS011;37713;53.254;6.460;2023-11-21T03:55:09;34.47;;;10.40;;
51636;SDS011;37713;53.254;6.460;2023-11-21T03:57:35;31.58;;;10.23;;
51636;SDS011;37713;53.254;6.460;2023-11-21T04:00:01;27.40;;;10.25;;
51636;SDS011;37713;53.254;6.460;2023-11-21T04:02:29;28.05;;;10.20;;
51636;SDS011;37713;53.254;6.460;2023-11-21T04:04:56;26.88;;;9.68;;
51636;SDS011;37713;53.254;6.460;2023-11-21T04:07:22;35.45;;;10.27;;
51636;SDS011;37713;53.254;6.460;2023-11-21T04:09:48;27.02;;;10.02;;
51636;SDS011;37713;53.254;6.460;2023-11-21T04:12:14;42.08;;;9.73;;
51636;SDS011;37713;53.254;6.460;2023-11-21T04:14:40;30.80;;;10.15;;
51636;SDS011;37713;53.254;6.460;2023-11-21T04:17:05;40.75;;;10.90;;
51636;SDS011;37713;53.254;6.460;2023-11-21T04:19:31;29.00;;;10.10;;
51636;SDS011;37713;53.254;6.460;2023-11-21T04:21:57;27.98;;;9.70;;
51636;SDS011;37713;53.254;6.460;2023-11-21T04:24:23;32.50;;;9.55;;
51636;SDS011;37713;53.254;6.460;2023-11-21T04:26:48;26.75;;;8.95;;
51636;SDS011;37713;53.254;6.460;2023-11-21T04:29:14;31.55;;;9.35;;
51636;SDS011;37713;53.254;6.460;2023-11-21T04:31:40;30.67;;;9.27;;
51636;SDS011;37713;53.254;6.460;2023-11-21T04:34:06;37.47;;;10.18;;
51636;SDS011;37713;53.254;6.460;2023-11-21T04:36:33;34.72;;;10.15;;
51636;SDS011;37713;53.254;6.460;2023-11-21T04:39:00;37.17;;;10.00;;
51636;SDS011;37713;53.254;6.460;2023-11-21T04:41:26;34.50;;;10.63;;
51636;SDS011;37713;53.254;6.460;2023-11-21T04:43:51;27.60;;;10.05;;
51636;SDS011;37713;53.254;6.460;2023-11-21T04:46:17;29.83;;;10.05;;
51636;SDS011;37713;53.254;6.460;2023-11-21T04:48:43;28.85;;;9.65;;
51636;SDS011;37713;53.254;6.460;2023-11-21T04:51:09;24.02;;;8.88;;
51636;SDS011;37713;53.254;6.460;2023-11-21T04:53:36;27.63;;;8.98;;
51636;SDS011;37713;53.254;6.460;2023-11-21T04:56:02;23.70;;;8.43;;
51636;SDS011;37713;53.254;6.460;2023-11-21T04:58:28;29.70;;;9.13;;
51636;SDS011;37713;53.254;6.460;2023-11-21T05:00:55;23.98;;;9.10;;
51636;SDS011;37713;53.254;6.460;2023-11-21T05:03:21;25.00;;;9.40;;
51636;SDS011;37713;53.254;6.460;2023-11-21T05:05:49;25.30;;;9.98;;
51636;SDS011;37713;53.254;6.460;2023-11-21T05:08:14;34.83;;;15.23;;
51636;SDS011;37713;53.254;6.460;2023-11-21T05:10:40;27.63;;;11.07;;
51636;SDS011;37713;53.254;6.460;2023-11-21T05:13:06;28.13;;;11.07;;
51636;SDS011;37713;53.254;6.460;2023-11-21T05:15:35;20.33;;;9.02;;
51636;SDS011;37713;53.254;6.460;2023-11-21T05:18:02;25.48;;;9.02;;
51636;SDS011;37713;53.254;6.460;2023-11-21T05:20:28;23.25;;;8.85;;
51636;SDS011;37713;53.254;6.460;2023-11-21T05:22:54;23.83;;;8.75;;
51636;SDS011;37713;53.254;6.460;2023-11-21T05:25:20;23.70;;;9.25;;
51636;SDS011;37713;53.254;6.460;2023-11-21T05:27:46;22.00;;;10.20;;
51636;SDS011;37713;53.254;6.460;2023-11-21T05:30:13;23.20;;;9.82;;
51636;SDS011;37713;53.254;6.460;2023-11-21T05:32:39;22.08;;;10.07;;
51636;SDS011;37713;53.254;6.460;2023-11-21T05:35:08;26.88;;;9.82;;
51636;SDS011;37713;53.254;6.460;2023-11-21T05:37:39;28.40;;;9.98;;
51636;SDS011;37713;53.254;6.460;2023-11-21T05:40:05;25.55;;;11.27;;
51636;SDS011;37713;53.254;6.460;2023-11-21T05:42:32;27.88;;;11.02;;
51636;SDS011;37713;53.254;6.460;2023-11-21T05:44:59;25.85;;;10.30;;
51636;SDS011;37713;53.254;6.460;2023-11-21T05:47:35;24.80;;;11.40;;
51636;SDS011;37713;53.254;6.460;2023-11-21T05:50:12;26.92;;;11.40;;
51636;SDS011;37713;53.254;6.460;2023-11-21T05:52:42;87.85;;;50.30;;
51636;SDS011;37713;53.254;6.460;2023-11-21T05:55:09;37.22;;;19.92;;
51636;SDS011;37713;53.254;6.460;2023-11-21T05:57:35;31.08;;;12.70;;
51636;SDS011;37713;53.254;6.460;2023-11-21T06:02:40;30.92;;;13.18;;
51636;SDS011;37713;53.254;6.460;2023-11-21T06:05:07;34.47;;;14.73;;
51636;SDS011;37713;53.254;6.460;2023-11-21T06:07:33;32.17;;;13.73;;
51636;SDS011;37713;53.254;6.460;2023-11-21T06:10:01;42.63;;;15.43;;
51636;SDS011;37713;53.254;6.460;2023-11-21T06:12:36;33.13;;;13.20;;
51636;SDS011;37713;53.254;6.460;2023-11-21T06:15:03;37.30;;;14.10;;
51636;SDS011;37713;53.254;6.460;2023-11-21T06:17:33;36.40;;;14.80;;
51636;SDS011;37713;53.254;6.460;2023-11-21T06:20:04;38.13;;;16.13;;
51636;SDS011;37713;53.254;6.460;2023-11-21T06:22:35;39.53;;;15.05;;
51636;SDS011;37713;53.254;6.460;2023-11-21T06:25:04;37.65;;;16.45;;
51636;SDS011;37713;53.254;6.460;2023-11-21T06:27:32;35.53;;;15.13;;
51636;SDS011;37713;53.254;6.460;2023-11-21T06:29:59;32.88;;;14.23;;
51636;SDS011;37713;53.254;6.460;2023-11-21T06:32:25;31.52;;;13.38;;
51636;SDS011;37713;53.254;6.460;2023-11-21T06:34:51;29.63;;;13.18;;
51636;SDS011;37713;53.254;6.460;2023-11-21T06:37:19;30.52;;;13.07;;
51636;SDS011;37713;53.254;6.460;2023-11-21T06:39:51;40.50;;;21.20;;
51636;SDS011;37713;53.254;6.460;2023-11-21T06:42:17;26.83;;;13.20;;
51636;SDS011;37713;53.254;6.460;2023-11-21T06:44:47;26.92;;;13.23;;
51636;SDS011;37713;53.254;6.460;2023-11-21T06:47:14;29.77;;;13.90;;
51636;SDS011;37713;53.254;6.460;2023-11-21T06:49:41;30.15;;;14.60;;
51636;SDS011;37713;53.254;6.460;2023-11-21T06:52:07;31.23;;;14.50;;
51636;SDS011;37713;53.254;6.460;2023-11-21T06:54:33;32.75;;;14.32;;
51636;SDS011;37713;53.254;6.460;2023-11-21T06:56:59;35.08;;;15.50;;
51636;SDS011;37713;53.254;6.460;2023-11-21T06:59:28;30.55;;;15.27;;
51636;SDS011;37713;53.254;6.460;2023-11-21T07:01:54;31.60;;;15.10;;
51636;SDS011;37713;53.254;6.460;2023-11-21T07:04:20;29.30;;;14.90;;
51636;SDS011;37713;53.254;6.460;2023-11-21T07:06:46;27.95;;;15.25;;
51636;SDS011;37713;53.254;6.460;2023-11-21T07:09:11;27.75;;;14.13;;
51636;SDS011;37713;53.254;6.460;2023-11-21T07:11:38;30.48;;;15.15;;
51636;SDS011;37713;53.254;6.460;2023-11-21T07:14:04;30.63;;;15.77;;
51636;SDS011;37713;53.254;6.460;2023-11-21T07:16:37;30.73;;;16.30;;
51636;SDS011;37713;53.254;6.460;2023-11-21T07:19:06;31.03;;;16.67;;
51636;SDS011;37713;53.254;6.460;2023-11-21T07:21:35;31.85;;;16.33;;
51636;SDS011;37713;53.254;6.460;2023-11-21T07:24:02;32.25;;;16.58;;
51636;SDS011;37713;53.254;6.460;2023-11-21T07:26:28;32.28;;;16.52;;
51636;SDS011;37713;53.254;6.460;2023-11-21T07:28:55;34.15;;;16.58;;
51636;SDS011;37713;53.254;6.460;2023-11-21T07:31:21;38.28;;;17.58;;
51636;SDS011;37713;53.254;6.460;2023-11-21T07:33:49;31.77;;;17.35;;
51636;SDS011;37713;53.254;6.460;2023-11-21T07:36:21;37.55;;;18.00;;
51636;SDS011;37713;53.254;6.460;2023-11-21T07:38:47;39.40;;;18.75;;
51636;SDS011;37713;53.254;6.460;2023-11-21T07:41:13;36.47;;;18.33;;
51636;SDS011;37713;53.254;6.460;2023-11-21T07:43:42;37.53;;;18.17;;
51636;SDS011;37713;53.254;6.460;2023-11-21T07:46:09;34.83;;;18.80;;
51636;SDS011;37713;53.254;6.460;2023-11-21T07:48:37;38.25;;;19.88;;
51636;SDS011;37713;53.254;6.460;2023-11-21T07:51:04;32.60;;;17.73;;
51636;SDS011;37713;53.254;6.460;2023-11-21T07:53:30;32.28;;;17.98;;
51636;SDS011;37713;53.254;6.460;2023-11-21T07:56:03;34.72;;;17.48;;
51636;SDS011;37713;53.254;6.460;2023-11-21T07:58:29;33.33;;;17.33;;
51636;SDS011;37713;53.254;6.460;2023-11-21T08:00:56;30.25;;;16.52;;
51636;SDS011;37713;53.254;6.460;2023-11-21T08:03:22;34.22;;;17.00;;
51636;SDS011;37713;53.254;6.460;2023-11-21T08:05:47;33.17;;;16.38;;
51636;SDS011;37713;53.254;6.460;2023-11-21T08:08:13;37.08;;;16.70;;
51636;SDS011;37713;53.254;6.460;2023-11-21T08:10:40;29.90;;;15.68;;
51636;SDS011;37713;53.254;6.460;2023-11-21T08:13:07;28.88;;;16.45;;
51636;SDS011;37713;53.254;6.460;2023-11-21T08:15:34;31.45;;;16.48;;
51636;SDS011;37713;53.254;6.460;2023-11-21T08:18:02;34.80;;;17.25;;
51636;SDS011;37713;53.254;6.460;2023-11-21T08:20:27;29.45;;;16.30;;
51636;SDS011;37713;53.254;6.460;2023-11-21T08:22:54;30.80;;;17.00;;
51636;SDS011;37713;53.254;6.460;2023-11-21T08:25:22;32.33;;;17.20;;
51636;SDS011;37713;53.254;6.460;2023-11-21T08:27:47;28.35;;;16.30;;
51636;SDS011;37713;53.254;6.460;2023-11-21T08:30:14;32.10;;;16.60;;
51636;SDS011;37713;53.254;6.460;2023-11-21T08:32:42;30.90;;;16.45;;
51636;SDS011;37713;53.254;6.460;2023-11-21T08:35:08;30.17;;;17.48;;
51636;SDS011;37713;53.254;6.460;2023-11-21T08:37:34;25.90;;;15.70;;
51636;SDS011;37713;53.254;6.460;2023-11-21T08:40:03;29.55;;;15.52;;
51636;SDS011;37713;53.254;6.460;2023-11-21T08:42:34;27.10;;;16.10;;
51636;SDS011;37713;53.254;6.460;2023-11-21T08:45:00;23.80;;;15.10;;
51636;SDS011;37713;53.254;6.460;2023-11-21T08:47:26;27.65;;;15.50;;
51636;SDS011;37713;53.254;6.460;2023-11-21T08:49:52;23.05;;;14.40;;
51636;SDS011;37713;53.254;6.460;2023-11-21T08:52:18;23.05;;;15.23;;
51636;SDS011;37713;53.254;6.460;2023-11-21T08:54:51;27.42;;;14.85;;
51636;SDS011;37713;53.254;6.460;2023-11-21T08:57:22;21.42;;;13.98;;
51636;SDS011;37713;53.254;6.460;2023-11-21T08:59:48;22.88;;;13.45;;
51636;SDS011;37713;53.254;6.460;2023-11-21T09:02:20;23.05;;;13.63;;
51636;SDS011;37713;53.254;6.460;2023-11-21T09:04:51;23.33;;;13.25;;
51636;SDS011;37713;53.254;6.460;2023-11-21T09:07:18;20.50;;;13.35;;
51636;SDS011;37713;53.254;6.460;2023-11-21T09:09:48;20.92;;;13.57;;
51636;SDS011;37713;53.254;6.460;2023-11-21T09:12:14;20.05;;;12.98;;
51636;SDS011;37713;53.254;6.460;2023-11-21T09:14:42;22.73;;;13.48;;
51636;SDS011;37713;53.254;6.460;2023-11-21T09:17:10;21.65;;;13.82;;
51636;SDS011;37713;53.254;6.460;2023-11-21T09:19:37;22.40;;;13.15;;
51636;SDS011;37713;53.254;6.460;2023-11-21T09:22:03;21.98;;;13.63;;
51636;SDS011;37713;53.254;6.460;2023-11-21T09:24:33;21.77;;;12.50;;
51636;SDS011;37713;53.254;6.460;2023-11-21T09:26:59;20.27;;;13.32;;
51636;SDS011;37713;53.254;6.460;2023-11-21T09:29:28;19.02;;;12.45;;
51636;SDS011;37713;53.254;6.460;2023-11-21T09:31:54;19.27;;;11.65;;
51636;SDS011;37713;53.254;6.460;2023-11-21T09:34:21;16.73;;;10.85;;
51636;SDS011;37713;53.254;6.460;2023-11-21T09:36:47;18.20;;;11.52;;
51636;SDS011;37713;53.254;6.460;2023-11-21T09:39:13;16.90;;;10.45;;
51636;SDS011;37713;53.254;6.460;2023-11-21T09:44:09;19.40;;;11.03;;
51636;SDS011;37713;53.254;6.460;2023-11-21T09:46:38;16.73;;;10.40;;
51636;SDS011;37713;53.254;6.460;2023-11-21T09:49:07;16.60;;;9.15;;
51636;SDS011;37713;53.254;6.460;2023-11-21T09:51:39;16.02;;;10.07;;
51636;SDS011;37713;53.254;6.460;2023-11-21T09:54:07;14.73;;;9.45;;
51636;SDS011;37713;53.254;6.460;2023-11-21T09:56:41;16.95;;;9.93;;
51636;SDS011;37713;53.254;6.460;2023-11-21T09:59:07;17.10;;;9.95;;
51636;SDS011;37713;53.254;6.460;2023-11-21T10:01:38;15.50;;;9.05;;
51636;SDS011;37713;53.254;6.460;2023-11-21T10:04:05;19.80;;;9.23;;
51636;SDS011;37713;53.254;6.460;2023-11-21T10:06:37;17.83;;;9.13;;
51636;SDS011;37713;53.254;6.460;2023-11-21T10:09:10;17.90;;;10.25;;
51636;SDS011;37713;53.254;6.460;2023-11-21T10:11:40;19.30;;;10.23;;
51636;SDS011;37713;53.254;6.460;2023-11-21T10:14:10;16.13;;;9.25;;
51636;SDS011;37713;53.254;6.460;2023-11-21T10:16:40;14.40;;;9.07;;
51636;SDS011;37713;53.254;6.460;2023-11-21T10:19:09;15.73;;;9.27;;
51636;SDS011;37713;53.254;6.460;2023-11-21T10:21:37;16.48;;;9.13;;
51636;SDS011;37713;53.254;6.460;2023-11-21T10:24:04;16.13;;;9.23;;
51636;SDS011;37713;53.254;6.460;2023-11-21T10:26:31;15.43;;;8.73;;
51636;SDS011;37713;53.254;6.460;2023-11-21T10:28:59;15.90;;;9.25;;
51636;SDS011;37713;53.254;6.460;2023-11-21T10:31:29;15.35;;;9.25;;
51636;SDS011;37713;53.254;6.460;2023-11-21T10:34:15;16.50;;;8.73;;
51636;SDS011;37713;53.254;6.460;2023-11-21T10:36:41;15.27;;;8.77;;
51636;SDS011;37713;53.254;6.460;2023-11-21T10:39:08;17.83;;;8.60;;
51636;SDS011;37713;53.254;6.460;2023-11-21T10:41:37;15.23;;;8.93;;
51636;SDS011;37713;53.254;6.460;2023-11-21T10:44:03;15.20;;;8.20;;
51636;SDS011;37713;53.254;6.460;2023-11-21T10:46:31;13.02;;;7.97;;
51636;SDS011;37713;53.254;6.460;2023-11-21T10:48:58;12.00;;;7.30;;
51636;SDS011;37713;53.254;6.460;2023-11-21T10:51:23;12.40;;;7.13;;
51636;SDS011;37713;53.254;6.460;2023-11-21T10:53:51;12.55;;;7.72;;
51636;SDS011;37713;53.254;6.460;2023-11-21T10:56:18;13.43;;;7.55;;
51636;SDS011;37713;53.254;6.460;2023-11-21T10:58:47;14.23;;;8.20;;
51636;SDS011;37713;53.254;6.460;2023-11-21T11:01:14;14.55;;;8.35;;
51636;SDS011;37713;53.254;6.460;2023-11-21T11:03:42;15.25;;;8.02;;
51636;SDS011;37713;53.254;6.460;2023-11-21T11:06:10;15.25;;;8.85;;
51636;SDS011;37713;53.254;6.460;2023-11-21T11:08:37;15.02;;;7.93;;
51636;SDS011;37713;53.254;6.460;2023-11-21T11:11:07;15.30;;;8.20;;
51636;SDS011;37713;53.254;6.460;2023-11-21T11:13:35;13.88;;;8.10;;
51636;SDS011;37713;53.254;6.460;2023-11-21T11:16:03;13.93;;;7.90;;
51636;SDS011;37713;53.254;6.460;2023-11-21T11:18:33;13.80;;;8.77;;
51636;SDS011;37713;53.254;6.460;2023-11-21T11:21:01;16.35;;;9.40;;
51636;SDS011;37713;53.254;6.460;2023-11-21T11:26:47;14.60;;;8.88;;
51636;SDS011;37713;53.254;6.460;2023-11-21T11:32:10;12.95;;;7.63;;
51636;SDS011;37713;53.254;6.460;2023-11-21T11:34:47;12.63;;;8.07;;
51636;SDS011;37713;53.254;6.460;2023-11-21T11:37:22;13.18;;;7.80;;
51636;SDS011;37713;53.254;6.460;2023-11-21T11:39:48;13.50;;;8.00;;
51636;SDS011;37713;53.254;6.460;2023-11-21T11:42:15;13.70;;;7.93;;
51636;SDS011;37713;53.254;6.460;2023-11-21T11:47:28;12.25;;;7.38;;
51636;SDS011;37713;53.254;6.460;2023-11-21T11:50:11;11.75;;;7.32;;
51636;SDS011;37713;53.254;6.460;2023-11-21T11:52:51;12.88;;;7.47;;
51636;SDS011;37713;53.254;6.460;2023-11-21T11:55:23;14.85;;;7.72;;
51636;SDS011;37713;53.254;6.460;2023-11-21T11:57:51;12.57;;;7.82;;
51636;SDS011;37713;53.254;6.460;2023-11-21T12:00:21;13.18;;;7.47;;
51636;SDS011;37713;53.254;6.460;2023-11-21T12:02:56;12.77;;;6.95;;
51636;SDS011;37713;53.254;6.460;2023-11-21T12:05:24;11.65;;;6.82;;
51636;SDS011;37713;53.254;6.460;2023-11-21T12:07:59;11.38;;;6.82;;
51636;SDS011;37713;53.254;6.460;2023-11-21T12:10:28;12.10;;;7.07;;
51636;SDS011;37713;53.254;6.460;2023-11-21T12:12:56;11.45;;;7.20;;
51636;SDS011;37713;53.254;6.460;2023-11-21T12:15:23;12.90;;;7.95;;
51636;SDS011;37713;53.254;6.460;2023-11-21T12:18:00;14.35;;;7.95;;
51636;SDS011;37713;53.254;6.460;2023-11-21T12:20:26;13.07;;;7.85;;
51636;SDS011;37713;53.254;6.460;2023-11-21T12:22:53;13.23;;;7.93;;
51636;SDS011;37713;53.254;6.460;2023-11-21T12:27:48;12.48;;;7.63;;
51636;SDS011;37713;53.254;6.460;2023-11-21T12:30:15;12.38;;;7.53;;
51636;SDS011;37713;53.254;6.460;2023-11-21T12:32:44;12.90;;;7.68;;
51636;SDS011;37713;53.254;6.460;2023-11-21T12:35:12;11.57;;;7.00;;
51636;SDS011;37713;53.254;6.460;2023-11-21T12:37:38;13.73;;;7.75;;
51636;SDS011;37713;53.254;6.460;2023-11-21T12:40:08;12.77;;;7.22;;
51636;SDS011;37713;53.254;6.460;2023-11-21T12:42:37;12.65;;;7.63;;
51636;SDS011;37713;53.254;6.460;2023-11-21T12:47:52;11.75;;;7.10;;
51636;SDS011;37713;53.254;6.460;2023-11-21T12:50:25;13.10;;;8.27;;
51636;SDS011;37713;53.254;6.460;2023-11-21T12:52:54;12.20;;;7.68;;
51636;SDS011;37713;53.254;6.460;2023-11-21T12:55:24;19.42;;;8.40;;
51636;SDS011;37713;53.254;6.460;2023-11-21T12:57:52;16.17;;;8.38;;
51636;SDS011;37713;53.254;6.460;2023-11-21T13:00:20;16.75;;;8.38;;
51636;SDS011;37713;53.254;6.460;2023-11-21T13:03:03;13.13;;;8.32;;
51636;SDS011;37713;53.254;6.460;2023-11-21T13:05:31;13.35;;;8.30;;
51636;SDS011;37713;53.254;6.460;2023-11-21T13:08:04;14.73;;;9.15;;
51636;SDS011;37713;53.254;6.460;2023-11-21T13:10:35;13.13;;;7.82;;
51636;SDS011;37713;53.254;6.460;2023-11-21T13:13:02;13.65;;;7.50;;
51636;SDS011;37713;53.254;6.460;2023-11-21T13:18:14;13.38;;;7.32;;
51636;SDS011;37713;53.254;6.460;2023-11-21T13:20:41;13.77;;;8.18;;
51636;SDS011;37713;53.254;6.460;2023-11-21T13:23:08;13.23;;;7.18;;
51636;SDS011;37713;53.254;6.460;2023-11-21T13:25:40;14.30;;;7.60;;
51636;SDS011;37713;53.254;6.460;2023-11-21T13:28:10;14.10;;;7.70;;
51636;SDS011;37713;53.254;6.460;2023-11-21T13:30:37;13.02;;;7.35;;
51636;SDS011;37713;53.254;6.460;2023-11-21T13:33:05;16.10;;;7.25;;
51636;SDS011;37713;53.254;6.460;2023-11-21T13:35:32;9.73;;;6.10;;
51636;SDS011;37713;53.254;6.460;2023-11-21T13:40:34;10.77;;;5.57;;
51636;SDS011;37713;53.254;6.460;2023-11-21T13:43:10;15.20;;;6.30;;
51636;SDS011;37713;53.254;6.460;2023-11-21T13:45:37;11.75;;;6.05;;
51636;SDS011;37713;53.254;6.460;2023-11-21T13:48:07;10.30;;;5.80;;
51636;SDS011;37713;53.254;6.460;2023-11-21T13:50:42;10.07;;;5.88;;
51636;SDS011;37713;53.254;6.460;2023-11-21T13:53:23;10.23;;;4.85;;
51636;SDS011;37713;53.254;6.460;2023-11-21T13:55:50;12.18;;;5.15;;
51636;SDS011;37713;53.254;6.460;2023-11-21T13:58:20;10.65;;;4.85;;
51636;SDS011;37713;53.254;6.460;2023-11-21T14:01:05;8.52;;;4.35;;
51636;SDS011;37713;53.254;6.460;2023-11-21T14:03:38;14.50;;;5.20;;
51636;SDS011;37713;53.254;6.460;2023-11-21T14:06:15;10.15;;;4.80;;
51636;SDS011;37713;53.254;6.460;2023-11-21T14:08:48;8.43;;;4.60;;
51636;SDS011;37713;53.254;6.460;2023-11-21T14:11:14;11.23;;;4.68;;
51636;SDS011;37713;53.254;6.460;2023-11-21T14:13:43;11.05;;;4.82;;
51636;SDS011;37713;53.254;6.460;2023-11-21T14:16:13;10.02;;;4.15;;
51636;SDS011;37713;53.254;6.460;2023-11-21T14:18:39;10.77;;;4.63;;
51636;SDS011;37713;53.254;6.460;2023-11-21T14:21:17;10.50;;;4.50;;
51636;SDS011;37713;53.254;6.460;2023-11-21T14:23:43;9.23;;;4.30;;
51636;SDS011;37713;53.254;6.460;2023-11-21T14:26:10;9.38;;;4.25;;
51636;SDS011;37713;53.254;6.460;2023-11-21T14:28:40;8.63;;;3.80;;
51636;SDS011;37713;53.254;6.460;2023-11-21T14:31:07;9.57;;;4.00;;
51636;SDS011;37713;53.254;6.460;2023-11-21T14:33:33;8.38;;;3.80;;
51636;SDS011;37713;53.254;6.460;2023-11-21T14:35:59;8.45;;;3.75;;
51636;SDS011;37713;53.254;6.460;2023-11-21T14:38:24;7.95;;;3.75;;
51636;SDS011;37713;53.254;6.460;2023-11-21T14:40:50;8.52;;;3.78;;
51636;SDS011;37713;53.254;6.460;2023-11-21T14:43:16;11.52;;;3.75;;
51636;SDS011;37713;53.254;6.460;2023-11-21T14:45:44;8.57;;;3.83;;
51636;SDS011;37713;53.254;6.460;2023-11-21T14:48:10;8.65;;;4.03;;
51636;SDS011;37713;53.254;6.460;2023-11-21T14:50:55;10.88;;;4.03;;
51636;SDS011;37713;53.254;6.460;2023-11-21T14:53:27;6.95;;;4.00;;
51636;SDS011;37713;53.254;6.460;2023-11-21T14:56:09;9.43;;;3.88;;
51636;SDS011;37713;53.254;6.460;2023-11-21T14:58:36;8.70;;;3.63;;